sensor_id;sensor_type;location;lat;lon;timestamp;pressure;altitude;pressure_sealevel;temperature;humidity
71424;BME280;59240;51.370;-0.486;2023-04-25T00:01:04;101448.34;;;6.50;100.00
71424;BME280;59240;51.370;-0.486;2023-04-25T00:03:35;101444.00;;;6.40;100.00
71424;BME280;59240;51.370;-0.486;2023-04-25T00:06:02;101458.66;;;6.40;100.00
71424;BME280;59240;51.370;-0.486;2023-04-25T00:08:29;101459.53;;;6.40;100.00
71424;BME280;59240;51.370;-0.486;2023-04-25T00:10:57;101459.44;;;6.29;100.00
71424;BME280;59240;51.370;-0.486;2023-04-25T00:13:24;101465.47;;;6.28;100.00
71424;BME280;59240;51.370;-0.486;2023-04-25T00:15:52;101461.16;;;6.26;100.00
71424;BME280;59240;51.370;-0.486;2023-04-25T00:18:19;101477.50;;;6.19;100.00
71424;BME280;59240;51.370;-0.486;2023-04-25T00:20:47;101476.59;;;6.14;100.00
71424;BME280;59240;51.370;-0.486;2023-04-25T00:23:14;101480.84;;;6.09;100.00
71424;BME280;59240;51.370;-0.486;2023-04-25T00:25:45;101488.56;;;6.02;100.00
71424;BME280;59240;51.370;-0.486;2023-04-25T00:28:12;101489.38;;;5.95;100.00
71424;BME280;59240;51.370;-0.486;2023-04-25T00:30:39;101489.38;;;5.95;100.00
71424;BME280;59240;51.370;-0.486;2023-04-25T00:33:06;101482.38;;;5.85;100.00
71424;BME280;59240;51.370;-0.486;2023-04-25T00:35:33;101475.44;;;5.81;100.00
71424;BME280;59240;51.370;-0.486;2023-04-25T00:38:00;101466.75;;;5.71;100.00
71424;BME280;59240;51.370;-0.486;2023-04-25T00:40:27;101474.50;;;5.71;100.00
71424;BME280;59240;51.370;-0.486;2023-04-25T00:42:54;101466.69;;;5.68;100.00
71424;BME280;59240;51.370;-0.486;2023-04-25T00:45:21;101478.72;;;5.63;100.00
71424;BME280;59240;51.370;-0.486;2023-04-25T00:47:47;101471.78;;;5.61;100.00
71424;BME280;59240;51.370;-0.486;2023-04-25T00:50:14;101486.44;;;5.62;100.00
71424;BME280;59240;51.370;-0.486;2023-04-25T00:52:43;101476.09;;;5.59;100.00
71424;BME280;59240;51.370;-0.486;2023-04-25T00:55:12;101478.63;;;5.56;100.00
71424;BME280;59240;51.370;-0.486;2023-04-25T00:57:39;101482.06;;;5.53;100.00
71424;BME280;59240;51.370;-0.486;2023-04-25T01:00:07;101494.13;;;5.51;100.00
71424;BME280;59240;51.370;-0.486;2023-04-25T01:02:36;101492.34;;;5.47;100.00
71424;BME280;59240;51.370;-0.486;2023-04-25T01:05:03;101501.72;;;5.40;100.00
71424;BME280;59240;51.370;-0.486;2023-04-25T01:07:30;101495.69;;;5.37;100.00
71424;BME280;59240;51.370;-0.486;2023-04-25T01:09:56;101494.75;;;5.30;100.00
71424;BME280;59240;51.370;-0.486;2023-04-25T01:12:23;101505.97;;;5.32;100.00
71424;BME280;59240;51.370;-0.486;2023-04-25T01:14:50;101491.25;;;5.28;100.00
71424;BME280;59240;51.370;-0.486;2023-04-25T01:17:17;101492.97;;;5.26;100.00
71424;BME280;59240;51.370;-0.486;2023-04-25T01:19:44;101497.28;;;5.26;100.00
71424;BME280;59240;51.370;-0.486;2023-04-25T01:22:12;101498.06;;;5.20;100.00
71424;BME280;59240;51.370;-0.486;2023-04-25T01:24:41;101497.19;;;5.18;100.00
71424;BME280;59240;51.370;-0.486;2023-04-25T01:27:08;101496.28;;;5.14;100.00
71424;BME280;59240;51.370;-0.486;2023-04-25T01:29:35;101498.00;;;5.14;100.00
71424;BME280;59240;51.370;-0.486;2023-04-25T01:32:02;101496.25;;;5.10;100.00
71424;BME280;59240;51.370;-0.486;2023-04-25T01:34:29;101499.63;;;5.06;100.00
71424;BME280;59240;51.370;-0.486;2023-04-25T01:36:56;101504.75;;;5.03;100.00
71424;BME280;59240;51.370;-0.486;2023-04-25T01:39:25;101515.03;;;5.00;100.00
71424;BME280;59240;51.370;-0.486;2023-04-25T01:41:52;101508.06;;;4.92;100.00
71424;BME280;59240;51.370;-0.486;2023-04-25T01:44:18;101511.50;;;4.91;100.00
71424;BME280;59240;51.370;-0.486;2023-04-25T01:46:45;101510.59;;;4.88;100.00
71424;BME280;59240;51.370;-0.486;2023-04-25T01:49:14;101518.28;;;4.83;100.00
71424;BME280;59240;51.370;-0.486;2023-04-25T01:51:41;101531.19;;;4.85;100.00
71424;BME280;59240;51.370;-0.486;2023-04-25T01:54:08;101526.78;;;4.75;100.00
71424;BME280;59240;51.370;-0.486;2023-04-25T01:56:37;101533.69;;;4.77;100.00
71424;BME280;59240;51.370;-0.486;2023-04-25T01:59:04;101537.91;;;4.72;100.00
71424;BME280;59240;51.370;-0.486;2023-04-25T02:01:32;101535.38;;;4.75;100.00
71424;BME280;59240;51.370;-0.486;2023-04-25T02:03:59;101538.81;;;4.74;100.00
71424;BME280;59240;51.370;-0.486;2023-04-25T02:06:26;101522.22;;;4.57;100.00
71424;BME280;59240;51.370;-0.486;2023-04-25T02:08:52;101529.19;;;4.65;100.00
71424;BME280;59240;51.370;-0.486;2023-04-25T02:11:19;101530.91;;;4.65;100.00
71424;BME280;59240;51.370;-0.486;2023-04-25T02:13:45;101530.81;;;4.59;100.00
71424;BME280;59240;51.370;-0.486;2023-04-25T02:16:12;101535.16;;;4.60;100.00
71424;BME280;59240;51.370;-0.486;2023-04-25T02:18:39;101530.81;;;4.56;100.00
71424;BME280;59240;51.370;-0.486;2023-04-25T02:21:06;101531.69;;;4.58;100.00
71424;BME280;59240;51.370;-0.486;2023-04-25T02:23:32;101543.72;;;4.59;100.00
71424;BME280;59240;51.370;-0.486;2023-04-25T02:25:59;101540.19;;;4.51;100.00
71424;BME280;59240;51.370;-0.486;2023-04-25T02:28:26;101541.00;;;4.47;100.00
71424;BME280;59240;51.370;-0.486;2023-04-25T02:30:52;101548.75;;;4.50;100.00
71424;BME280;59240;51.370;-0.486;2023-04-25T02:33:19;101553.81;;;4.44;100.00
71424;BME280;59240;51.370;-0.486;2023-04-25T02:35:47;101557.28;;;4.46;100.00
71424;BME280;59240;51.370;-0.486;2023-04-25T02:38:13;101553.81;;;4.44;100.00
71424;BME280;59240;51.370;-0.486;2023-04-25T02:40:43;101546.06;;;4.41;100.00
71424;BME280;59240;51.370;-0.486;2023-04-25T02:43:10;101543.41;;;4.36;100.00
71424;BME280;59240;51.370;-0.486;2023-04-25T02:45:36;101549.41;;;4.35;100.00
71424;BME280;59240;51.370;-0.486;2023-04-25T02:48:04;101549.31;;;4.30;100.00
71424;BME280;59240;51.370;-0.486;2023-04-25T02:50:30;101551.88;;;4.27;100.00
71424;BME280;59240;51.370;-0.486;2023-04-25T02:53:00;101546.69;;;4.27;100.00
71424;BME280;59240;51.370;-0.486;2023-04-25T02:55:28;101546.50;;;4.17;100.00
71424;BME280;59240;51.370;-0.486;2023-04-25T02:57:55;101549.06;;;4.15;100.00
71424;BME280;59240;51.370;-0.486;2023-04-25T03:00:22;101555.00;;;4.11;100.00
71424;BME280;59240;51.370;-0.486;2023-04-25T03:02:50;101548.19;;;4.13;100.00
71424;BME280;59240;51.370;-0.486;2023-04-25T03:05:17;101546.47;;;4.12;100.00
71424;BME280;59240;51.370;-0.486;2023-04-25T03:07:44;101560.13;;;4.08;100.00
71424;BME280;59240;51.370;-0.486;2023-04-25T03:10:11;101557.50;;;4.05;100.00
71424;BME280;59240;51.370;-0.486;2023-04-25T03:12:37;101551.44;;;4.01;100.00
71424;BME280;59240;51.370;-0.486;2023-04-25T03:15:04;101545.31;;;3.96;100.00
71424;BME280;59240;51.370;-0.486;2023-04-25T03:17:34;101559.91;;;3.96;100.00
71424;BME280;59240;51.370;-0.486;2023-04-25T03:20:01;101553.03;;;3.95;100.00
71424;BME280;59240;51.370;-0.486;2023-04-25T03:22:28;101549.44;;;3.85;100.00
71424;BME280;59240;51.370;-0.486;2023-04-25T03:24:54;101542.50;;;3.82;100.00
71424;BME280;59240;51.370;-0.486;2023-04-25T03:27:21;101545.91;;;3.81;100.00
71424;BME280;59240;51.370;-0.486;2023-04-25T03:29:47;101565.78;;;3.87;100.00
71424;BME280;59240;51.370;-0.486;2023-04-25T03:32:13;101550.16;;;3.78;100.00
71424;BME280;59240;51.370;-0.486;2023-04-25T03:34:40;101565.72;;;3.84;100.00
71424;BME280;59240;51.370;-0.486;2023-04-25T03:37:07;101565.66;;;3.81;100.00
71424;BME280;59240;51.370;-0.486;2023-04-25T03:39:33;101559.53;;;3.74;100.00
71424;BME280;59240;51.370;-0.486;2023-04-25T03:42:00;101572.47;;;3.77;100.00
71424;BME280;59240;51.370;-0.486;2023-04-25T03:44:27;101569.84;;;3.74;100.00
71424;BME280;59240;51.370;-0.486;2023-04-25T03:46:53;101575.81;;;3.72;100.00
71424;BME280;59240;51.370;-0.486;2023-04-25T03:49:20;101577.47;;;3.70;100.00
71424;BME280;59240;51.370;-0.486;2023-04-25T03:51:46;101591.16;;;3.66;100.00
71424;BME280;59240;51.370;-0.486;2023-04-25T03:54:13;101581.50;;;3.55;100.00
71424;BME280;59240;51.370;-0.486;2023-04-25T03:56:42;101591.88;;;3.59;100.00
71424;BME280;59240;51.370;-0.486;2023-04-25T03:59:11;101590.97;;;3.56;100.00
71424;BME280;59240;51.370;-0.486;2023-04-25T04:01:37;101582.34;;;3.54;100.00
71424;BME280;59240;51.370;-0.486;2023-04-25T04:04:04;101575.28;;;3.44;100.00
71424;BME280;59240;51.370;-0.486;2023-04-25T04:06:32;101590.75;;;3.46;100.00
71424;BME280;59240;51.370;-0.486;2023-04-25T04:08:59;101599.34;;;3.45;100.00
71424;BME280;59240;51.370;-0.486;2023-04-25T04:11:26;101603.56;;;3.43;100.00
71424;BME280;59240;51.370;-0.486;2023-04-25T04:13:52;101602.56;;;3.36;100.00
71424;BME280;59240;51.370;-0.486;2023-04-25T04:16:19;101602.47;;;3.30;100.00
71424;BME280;59240;51.370;-0.486;2023-04-25T04:18:46;101614.25;;;3.20;100.00
71424;BME280;59240;51.370;-0.486;2023-04-25T04:21:12;101613.56;;;3.27;100.00
71424;BME280;59240;51.370;-0.486;2023-04-25T04:23:39;101632.22;;;3.17;100.00
71424;BME280;59240;51.370;-0.486;2023-04-25T04:26:06;101638.09;;;3.12;100.00
71424;BME280;59240;51.370;-0.486;2023-04-25T04:28:36;101637.16;;;3.08;100.00
71424;BME280;59240;51.370;-0.486;2023-04-25T04:31:04;101637.06;;;3.02;100.00
71424;BME280;59240;51.370;-0.486;2023-04-25T04:33:30;101644.69;;;2.99;100.00
71424;BME280;59240;51.370;-0.486;2023-04-25T04:35:57;101639.66;;;3.04;100.00
71424;BME280;59240;51.370;-0.486;2023-04-25T04:38:24;101630.78;;;2.91;100.00
71424;BME280;59240;51.370;-0.486;2023-04-25T04:40:51;101641.19;;;2.95;100.00
71424;BME280;59240;51.370;-0.486;2023-04-25T04:43:18;101632.25;;;2.81;100.00
71424;BME280;59240;51.370;-0.486;2023-04-25T04:45:45;101648.66;;;2.85;100.00
71424;BME280;59240;51.370;-0.486;2023-04-25T04:48:11;101650.38;;;2.86;100.00
71424;BME280;59240;51.370;-0.486;2023-04-25T04:50:40;101650.31;;;2.83;100.00
71424;BME280;59240;51.370;-0.486;2023-04-25T04:53:07;101654.50;;;2.79;100.00
71424;BME280;59240;51.370;-0.486;2023-04-25T04:55:33;101640.56;;;2.69;100.00
71424;BME280;59240;51.370;-0.486;2023-04-25T04:58:00;101650.09;;;2.73;100.00
71424;BME280;59240;51.370;-0.486;2023-04-25T05:00:26;101657.66;;;2.67;100.00
71424;BME280;59240;51.370;-0.486;2023-04-25T05:02:55;101673.16;;;2.69;100.00
71424;BME280;59240;51.370;-0.486;2023-04-25T05:05:22;101667.84;;;2.63;100.00
71424;BME280;59240;51.370;-0.486;2023-04-25T05:07:49;101685.88;;;2.64;100.00
71424;BME280;59240;51.370;-0.486;2023-04-25T05:10:17;101685.81;;;2.61;100.00
71424;BME280;59240;51.370;-0.486;2023-04-25T05:12:43;101669.25;;;2.50;100.00
71424;BME280;59240;51.370;-0.486;2023-04-25T05:15:11;101687.41;;;2.56;100.00
71424;BME280;59240;51.370;-0.486;2023-04-25T05:17:38;101694.28;;;2.57;100.00
71424;BME280;59240;51.370;-0.486;2023-04-25T05:20:06;101695.13;;;2.56;100.00
71424;BME280;59240;51.370;-0.486;2023-04-25T05:22:34;101703.72;;;2.57;100.00
71424;BME280;59240;51.370;-0.486;2023-04-25T05:25:00;101713.19;;;2.59;100.00
71424;BME280;59240;51.370;-0.486;2023-04-25T05:27:27;101712.41;;;2.62;100.00
71424;BME280;59240;51.370;-0.486;2023-04-25T05:29:53;101721.03;;;2.64;100.00
71424;BME280;59240;51.370;-0.486;2023-04-25T05:32:20;101716.63;;;2.60;100.00
71424;BME280;59240;51.370;-0.486;2023-04-25T05:34:47;101724.53;;;2.67;100.00
71424;BME280;59240;51.370;-0.486;2023-04-25T05:37:13;101719.50;;;2.70;100.00
71424;BME280;59240;51.370;-0.486;2023-04-25T05:39:40;101725.53;;;2.72;100.00
71424;BME280;59240;51.370;-0.486;2023-04-25T05:42:06;101716.03;;;2.70;100.00
71424;BME280;59240;51.370;-0.486;2023-04-25T05:44:33;101724.00;;;2.81;100.00
71424;BME280;59240;51.370;-0.486;2023-04-25T05:47:03;101732.72;;;2.86;100.00
71424;BME280;59240;51.370;-0.486;2023-04-25T05:49:31;101729.56;;;2.96;100.00
71424;BME280;59240;51.370;-0.486;2023-04-25T05:51:57;101730.53;;;3.01;100.00
71424;BME280;59240;51.370;-0.486;2023-04-25T05:54:24;101729.72;;;3.02;100.00
71424;BME280;59240;51.370;-0.486;2023-04-25T05:56:50;101740.22;;;3.11;100.00
71424;BME280;59240;51.370;-0.486;2023-04-25T05:59:17;101742.91;;;3.16;100.00
71424;BME280;59240;51.370;-0.486;2023-04-25T06:01:43;101731.81;;;3.18;100.00
71424;BME280;59240;51.370;-0.486;2023-04-25T06:04:10;101748.50;;;3.36;100.00
71424;BME280;59240;51.370;-0.486;2023-04-25T06:06:36;101744.13;;;3.32;100.00
71424;BME280;59240;51.370;-0.486;2023-04-25T06:09:03;101750.38;;;3.43;100.00
71424;BME280;59240;51.370;-0.486;2023-04-25T06:11:31;101746.94;;;3.42;100.00
71424;BME280;59240;51.370;-0.486;2023-04-25T06:13:58;101756.75;;;3.57;100.00
71424;BME280;59240;51.370;-0.486;2023-04-25T06:16:24;101744.88;;;3.65;100.00
71424;BME280;59240;51.370;-0.486;2023-04-25T06:18:52;101745.94;;;3.75;100.00
71424;BME280;59240;51.370;-0.486;2023-04-25T06:21:19;101748.91;;;3.93;100.00
71424;BME280;59240;51.370;-0.486;2023-04-25T06:23:45;101745.47;;;3.93;100.00
71424;BME280;59240;51.370;-0.486;2023-04-25T06:26:12;101751.19;;;4.20;100.00
71424;BME280;59240;51.370;-0.486;2023-04-25T06:28:38;101754.81;;;4.31;100.00
71424;BME280;59240;51.370;-0.486;2023-04-25T06:31:06;101744.00;;;4.49;100.00
71424;BME280;59240;51.370;-0.486;2023-04-25T06:33:32;101762.47;;;4.72;100.00
71424;BME280;59240;51.370;-0.486;2023-04-25T06:36:02;101752.47;;;4.90;100.00
71424;BME280;59240;51.370;-0.486;2023-04-25T06:38:28;101761.34;;;5.08;100.00
71424;BME280;59240;51.370;-0.486;2023-04-25T06:40:55;101760.75;;;5.24;100.00
71424;BME280;59240;51.370;-0.486;2023-04-25T06:43:22;101767.88;;;5.40;100.00
71424;BME280;59240;51.370;-0.486;2023-04-25T06:45:48;101774.19;;;5.58;100.00
71424;BME280;59240;51.370;-0.486;2023-04-25T06:48:18;101763.19;;;5.72;100.00
71424;BME280;59240;51.370;-0.486;2023-04-25T06:50:44;101772.84;;;5.84;100.00
71424;BME280;59240;51.370;-0.486;2023-04-25T06:53:13;101761.66;;;5.88;100.00
71424;BME280;59240;51.370;-0.486;2023-04-25T06:55:40;101767.91;;;6.02;100.00
71424;BME280;59240;51.370;-0.486;2023-04-25T06:58:06;101773.25;;;6.15;100.00
71424;BME280;59240;51.370;-0.486;2023-04-25T07:00:33;101780.19;;;6.19;100.00
71424;BME280;59240;51.370;-0.486;2023-04-25T07:03:00;101778.59;;;6.30;100.00
71424;BME280;59240;51.370;-0.486;2023-04-25T07:05:27;101782.94;;;6.33;100.00
71424;BME280;59240;51.370;-0.486;2023-04-25T07:07:53;101788.22;;;6.45;100.00
71424;BME280;59240;51.370;-0.486;2023-04-25T07:10:20;101783.16;;;6.52;100.00
71424;BME280;59240;51.370;-0.486;2023-04-25T07:12:47;101780.63;;;6.58;100.00
71424;BME280;59240;51.370;-0.486;2023-04-25T07:15:14;101789.38;;;6.70;100.00
71424;BME280;59240;51.370;-0.486;2023-04-25T07:17:40;101791.16;;;6.74;100.00
71424;BME280;59240;51.370;-0.486;2023-04-25T07:20:07;101795.44;;;6.72;100.00
71424;BME280;59240;51.370;-0.486;2023-04-25T07:22:35;101803.19;;;6.69;100.00
71424;BME280;59240;51.370;-0.486;2023-04-25T07:25:02;101793.72;;;6.72;100.00
71424;BME280;59240;51.370;-0.486;2023-04-25T07:27:31;101801.59;;;6.83;100.00
71424;BME280;59240;51.370;-0.486;2023-04-25T07:30:00;101800.84;;;6.93;100.00
71424;BME280;59240;51.370;-0.486;2023-04-25T07:32:26;101793.94;;;6.94;100.00
71424;BME280;59240;51.370;-0.486;2023-04-25T07:34:53;101805.25;;;7.03;100.00
71424;BME280;59240;51.370;-0.486;2023-04-25T07:37:19;101797.47;;;7.05;100.00
71424;BME280;59240;51.370;-0.486;2023-04-25T07:39:49;101806.28;;;7.21;100.00
71424;BME280;59240;51.370;-0.486;2023-04-25T07:42:15;101807.19;;;7.32;100.00
71424;BME280;59240;51.370;-0.486;2023-04-25T07:44:42;101809.03;;;7.42;100.00
71424;BME280;59240;51.370;-0.486;2023-04-25T07:47:09;101806.50;;;7.51;100.00
71424;BME280;59240;51.370;-0.486;2023-04-25T07:49:39;101810.84;;;7.55;100.00
71424;BME280;59240;51.370;-0.486;2023-04-25T07:52:05;101793.56;;;7.60;100.00
71424;BME280;59240;51.370;-0.486;2023-04-25T07:54:35;101811.03;;;7.83;100.00
71424;BME280;59240;51.370;-0.486;2023-04-25T07:57:02;101817.13;;;7.94;100.00
71424;BME280;59240;51.370;-0.486;2023-04-25T07:59:29;101815.47;;;8.07;100.00
71424;BME280;59240;51.370;-0.486;2023-04-25T08:01:58;101809.47;;;8.21;100.00
71424;BME280;59240;51.370;-0.486;2023-04-25T08:04:25;101810.31;;;8.13;100.00
71424;BME280;59240;51.370;-0.486;2023-04-25T08:06:52;101819.03;;;8.24;100.00
71424;BME280;59240;51.370;-0.486;2023-04-25T08:09:20;101828.53;;;8.30;100.00
71424;BME280;59240;51.370;-0.486;2023-04-25T08:11:47;101825.22;;;8.52;100.00
71424;BME280;59240;51.370;-0.486;2023-04-25T08:14:14;101828.72;;;8.69;100.00
71424;BME280;59240;51.370;-0.486;2023-04-25T08:16:41;101832.19;;;8.77;100.00
71424;BME280;59240;51.370;-0.486;2023-04-25T08:19:09;101825.31;;;8.86;100.00
71424;BME280;59240;51.370;-0.486;2023-04-25T08:21:35;101846.13;;;9.07;100.00
71424;BME280;59240;51.370;-0.486;2023-04-25T08:24:02;101837.47;;;9.20;100.00
71424;BME280;59240;51.370;-0.486;2023-04-25T08:26:29;101840.94;;;9.38;100.00
71424;BME280;59240;51.370;-0.486;2023-04-25T08:28:55;101845.28;;;9.40;100.00
71424;BME280;59240;51.370;-0.486;2023-04-25T08:31:22;101831.41;;;9.43;100.00
71424;BME280;59240;51.370;-0.486;2023-04-25T08:33:51;101844.38;;;9.46;100.00
71424;BME280;59240;51.370;-0.486;2023-04-25T08:36:18;101837.47;;;9.49;100.00
71424;BME280;59240;51.370;-0.486;2023-04-25T08:39:04;101834.84;;;9.52;100.00
71424;BME280;59240;51.370;-0.486;2023-04-25T08:41:30;101844.38;;;9.58;100.00
71424;BME280;59240;51.370;-0.486;2023-04-25T08:43:58;101839.19;;;9.70;100.00
71424;BME280;59240;51.370;-0.486;2023-04-25T08:46:27;101846.06;;;9.86;100.00
71424;BME280;59240;51.370;-0.486;2023-04-25T08:48:57;101834.78;;;9.86;100.00
71424;BME280;59240;51.370;-0.486;2023-04-25T08:51:26;101852.97;;;10.07;100.00
71424;BME280;59240;51.370;-0.486;2023-04-25T08:53:55;101837.28;;;10.21;100.00
71424;BME280;59240;51.370;-0.486;2023-04-25T08:56:44;101844.25;;;10.28;100.00
71424;BME280;59240;51.370;-0.486;2023-04-25T08:59:12;101841.69;;;10.24;100.00
71424;BME280;59240;51.370;-0.486;2023-04-25T09:01:38;101844.22;;;10.37;100.00
71424;BME280;59240;51.370;-0.486;2023-04-25T09:04:05;101846.78;;;10.48;100.00
71424;BME280;59240;51.370;-0.486;2023-04-25T09:06:32;101825.94;;;10.47;99.16
71424;BME280;59240;51.370;-0.486;2023-04-25T09:09:05;101838.00;;;10.67;100.00
71424;BME280;59240;51.370;-0.486;2023-04-25T09:11:33;101821.47;;;10.70;100.00
71424;BME280;59240;51.370;-0.486;2023-04-25T09:14:12;101836.09;;;10.94;100.00
71424;BME280;59240;51.370;-0.486;2023-04-25T09:19:26;101829.84;;;11.19;99.81
71424;BME280;59240;51.370;-0.486;2023-04-25T09:22:06;101835.84;;;11.29;99.84
71424;BME280;59240;51.370;-0.486;2023-04-25T09:24:42;101835.78;;;11.35;100.00
71424;BME280;59240;51.370;-0.486;2023-04-25T09:27:11;101829.59;;;11.45;100.00
71424;BME280;59240;51.370;-0.486;2023-04-25T09:29:40;101838.22;;;11.57;98.22
71424;BME280;59240;51.370;-0.486;2023-04-25T09:32:12;101831.97;;;11.74;100.00
71424;BME280;59240;51.370;-0.486;2023-04-25T09:34:41;101835.34;;;11.89;97.03
71424;BME280;59240;51.370;-0.486;2023-04-25T09:37:10;101837.06;;;11.90;96.08
71424;BME280;59240;51.370;-0.486;2023-04-25T09:39:39;101827.41;;;11.96;97.93
71424;BME280;59240;51.370;-0.486;2023-04-25T09:42:06;101815.25;;;11.92;91.70
71424;BME280;59240;51.370;-0.486;2023-04-25T09:44:32;101822.06;;;12.09;95.24
71424;BME280;59240;51.370;-0.486;2023-04-25T09:46:59;101832.25;;;12.30;91.01
71424;BME280;59240;51.370;-0.486;2023-04-25T09:49:26;101828.47;;;12.52;89.30
71424;BME280;59240;51.370;-0.486;2023-04-25T09:51:56;101835.00;;;12.84;92.33
71424;BME280;59240;51.370;-0.486;2023-04-25T09:54:26;101831.09;;;13.12;94.35
71424;BME280;59240;51.370;-0.486;2023-04-25T09:56:53;101832.66;;;13.26;86.51
71424;BME280;59240;51.370;-0.486;2023-04-25T09:59:21;101835.91;;;13.40;86.80
71424;BME280;59240;51.370;-0.486;2023-04-25T10:01:49;101839.22;;;13.50;94.45
71424;BME280;59240;51.370;-0.486;2023-04-25T10:04:21;101837.25;;;13.62;88.30
71424;BME280;59240;51.370;-0.486;2023-04-25T10:06:49;101849.31;;;13.73;86.20
71424;BME280;59240;51.370;-0.486;2023-04-25T10:09:20;101827.75;;;13.57;84.71
71424;BME280;59240;51.370;-0.486;2023-04-25T10:11:47;101837.78;;;13.32;83.87
71424;BME280;59240;51.370;-0.486;2023-04-25T10:14:18;101842.34;;;13.16;87.76
71424;BME280;59240;51.370;-0.486;2023-04-25T10:16:45;101842.56;;;13.04;79.81
71424;BME280;59240;51.370;-0.486;2023-04-25T10:19:12;101841.69;;;13.03;81.18
71424;BME280;59240;51.370;-0.486;2023-04-25T10:21:46;101841.66;;;13.06;91.28
71424;BME280;59240;51.370;-0.486;2023-04-25T10:24:20;101844.47;;;12.93;80.23
71424;BME280;59240;51.370;-0.486;2023-04-25T10:26:48;101837.75;;;12.73;83.62
71424;BME280;59240;51.370;-0.486;2023-04-25T10:29:22;101830.63;;;12.86;90.00
71424;BME280;59240;51.370;-0.486;2023-04-25T10:31:50;101831.03;;;13.15;80.04
71424;BME280;59240;51.370;-0.486;2023-04-25T10:34:17;101822.75;;;13.43;80.23
71424;BME280;59240;51.370;-0.486;2023-04-25T10:36:50;101830.81;;;13.82;86.00
71424;BME280;59240;51.370;-0.486;2023-04-25T10:39:23;101831.50;;;13.90;86.51
71424;BME280;59240;51.370;-0.486;2023-04-25T10:41:57;101838.66;;;13.82;93.47
71424;BME280;59240;51.370;-0.486;2023-04-25T10:44:33;101827.28;;;13.83;86.93
71424;BME280;59240;51.370;-0.486;2023-04-25T10:47:01;101843.59;;;13.97;76.86
71424;BME280;59240;51.370;-0.486;2023-04-25T10:49:33;101835.09;;;13.84;77.82
71424;BME280;59240;51.370;-0.486;2023-04-25T10:55:03;101828.47;;;14.11;94.01
71424;BME280;59240;51.370;-0.486;2023-04-25T10:57:38;101834.25;;;14.29;94.53
71424;BME280;59240;51.370;-0.486;2023-04-25T11:00:12;101834.91;;;14.38;79.77
71424;BME280;59240;51.370;-0.486;2023-04-25T11:03:06;101828.16;;;14.68;92.61
71424;BME280;59240;51.370;-0.486;2023-04-25T11:05:34;101831.28;;;14.86;74.23
71424;BME280;59240;51.370;-0.486;2023-04-25T11:08:13;101818.31;;;15.15;71.60
71424;BME280;59240;51.370;-0.486;2023-04-25T11:10:44;101814.28;;;15.38;70.02
71424;BME280;59240;51.370;-0.486;2023-04-25T11:13:10;101813.72;;;15.59;69.81
71424;BME280;59240;51.370;-0.486;2023-04-25T11:15:37;101823.25;;;15.65;68.01
71424;BME280;59240;51.370;-0.486;2023-04-25T11:18:03;101812.59;;;15.69;67.62
71424;BME280;59240;51.370;-0.486;2023-04-25T11:20:30;101809.59;;;15.49;67.10
71424;BME280;59240;51.370;-0.486;2023-04-25T11:22:58;101820.25;;;15.78;69.00
71424;BME280;59240;51.370;-0.486;2023-04-25T11:25:26;101812.66;;;15.99;66.33
71424;BME280;59240;51.370;-0.486;2023-04-25T11:27:54;101810.31;;;16.19;66.79
71424;BME280;59240;51.370;-0.486;2023-04-25T11:30:23;101809.03;;;16.34;66.88
71424;BME280;59240;51.370;-0.486;2023-04-25T11:32:50;101805.50;;;16.04;64.50
71424;BME280;59240;51.370;-0.486;2023-04-25T11:35:21;101804.22;;;15.88;78.54
71424;BME280;59240;51.370;-0.486;2023-04-25T11:37:49;101814.13;;;16.09;62.55
71424;BME280;59240;51.370;-0.486;2023-04-25T11:40:16;101821.97;;;16.41;63.99
71424;BME280;59240;51.370;-0.486;2023-04-25T11:42:47;101820.81;;;16.50;65.21
71424;BME280;59240;51.370;-0.486;2023-04-25T11:45:14;101823.06;;;16.03;63.88
71424;BME280;59240;51.370;-0.486;2023-04-25T11:47:42;101818.63;;;15.39;63.84
71424;BME280;59240;51.370;-0.486;2023-04-25T11:50:09;101818.25;;;14.81;67.22
71424;BME280;59240;51.370;-0.486;2023-04-25T11:52:42;101825.78;;;14.58;75.46
71424;BME280;59240;51.370;-0.486;2023-04-25T11:55:16;101827.41;;;14.21;76.39
71424;BME280;59240;51.370;-0.486;2023-04-25T11:57:45;101827.69;;;14.06;66.74
71424;BME280;59240;51.370;-0.486;2023-04-25T12:00:13;101826.09;;;13.99;69.77
71424;BME280;59240;51.370;-0.486;2023-04-25T12:02:45;101829.19;;;14.19;70.35
71424;BME280;59240;51.370;-0.486;2023-04-25T12:05:14;101827.78;;;14.45;73.13
71424;BME280;59240;51.370;-0.486;2023-04-25T12:07:47;101819.44;;;14.69;65.65
71424;BME280;59240;51.370;-0.486;2023-04-25T12:10:16;101822.47;;;14.88;71.10
71424;BME280;59240;51.370;-0.486;2023-04-25T12:12:44;101824.19;;;14.91;76.62
71424;BME280;59240;51.370;-0.486;2023-04-25T12:15:16;101816.75;;;15.08;81.69
71424;BME280;59240;51.370;-0.486;2023-04-25T12:17:46;101827.19;;;15.11;64.06
71424;BME280;59240;51.370;-0.486;2023-04-25T12:20:15;101831.91;;;14.95;69.12
71424;BME280;59240;51.370;-0.486;2023-04-25T12:22:45;101836.94;;;14.69;66.19
71424;BME280;59240;51.370;-0.486;2023-04-25T12:25:42;101833.84;;;14.50;96.07
71424;BME280;59240;51.370;-0.486;2023-04-25T12:28:15;101834.53;;;14.58;75.57
71424;BME280;59240;51.370;-0.486;2023-04-25T12:30:52;101825.09;;;14.90;91.97
71424;BME280;59240;51.370;-0.486;2023-04-25T12:33:19;101834.66;;;14.91;72.07
71424;BME280;59240;51.370;-0.486;2023-04-25T12:35:46;101833.94;;;14.44;65.70
71424;BME280;59240;51.370;-0.486;2023-04-25T12:38:29;101836.34;;;14.11;74.33
71424;BME280;59240;51.370;-0.486;2023-04-25T12:40:59;101839.75;;;14.16;81.06
71424;BME280;59240;51.370;-0.486;2023-04-25T12:43:26;101829.53;;;14.44;68.35
71424;BME280;59240;51.370;-0.486;2023-04-25T12:45:54;101841.34;;;14.65;71.98
71424;BME280;59240;51.370;-0.486;2023-04-25T12:48:21;101844.66;;;14.32;62.53
71424;BME280;59240;51.370;-0.486;2023-04-25T12:50:49;101844.91;;;14.19;71.23